createdAt,value
2022-09-23T03:12:52.984Z,100.00
2022-09-23T03:16:10.430Z,100.00
2022-09-23T03:19:33.846Z,100.00
2022-09-23T03:23:10.600Z,100.00
2022-09-23T03:26:19.623Z,100.00
2022-09-23T03:29:23.498Z,100.00
2022-09-23T03:32:27.933Z,100.00
2022-09-23T03:35:33.871Z,100.00
2022-09-23T03:38:39.295Z,100.00
2022-09-23T03:41:50.760Z,100.00
2022-09-23T03:44:56.322Z,100.00
2022-09-23T03:47:58.671Z,100.00
2022-09-23T03:51:18.060Z,100.00
2022-09-23T03:54:20.622Z,100.00
2022-09-23T03:57:22.856Z,100.00
2022-09-23T04:00:25.172Z,100.00
2022-09-23T04:03:28.042Z,100.00
2022-09-23T04:06:30.077Z,100.00
2022-09-23T04:09:32.567Z,100.00
2022-09-23T04:12:35.015Z,100.00
2022-09-23T04:15:37.936Z,100.00
2022-09-23T04:18:39.991Z,100.00
2022-09-23T04:21:43.654Z,100.00
2022-09-23T04:24:45.734Z,100.00
2022-09-23T04:27:48.115Z,100.00
2022-09-23T04:30:51.127Z,100.00
2022-09-23T04:33:53.630Z,100.00
2022-09-23T04:36:55.713Z,100.00
2022-09-23T04:39:58.101Z,100.00
2022-09-23T04:43:00.178Z,100.00
2022-09-23T04:46:05.070Z,100.00
2022-09-23T04:49:08.097Z,100.00
2022-09-23T04:52:10.573Z,100.00
2022-09-23T04:55:12.625Z,100.00
2022-09-23T04:58:14.966Z,100.00
2022-09-23T05:01:20.204Z,100.00
2022-09-23T05:04:22.777Z,100.00
2022-09-23T05:07:25.112Z,100.00
2022-09-23T05:10:27.403Z,100.00
2022-09-23T05:13:29.455Z,100.00
2022-09-23T05:16:31.827Z,100.00
2022-09-23T05:19:33.893Z,100.00
2022-09-23T05:22:36.363Z,100.00
2022-09-23T05:25:38.616Z,100.00
2022-09-23T05:28:40.939Z,100.00
2022-09-23T05:31:43.064Z,100.00
2022-09-23T05:34:45.685Z,100.00
2022-09-23T05:37:47.721Z,100.00
2022-09-23T05:40:57.573Z,100.00
2022-09-23T05:43:59.866Z,100.00
2022-09-23T05:47:02.712Z,100.00
2022-09-23T05:50:05.211Z,97.76
2022-09-23T05:53:07.533Z,94.15
2022-09-23T05:56:09.632Z,90.52
2022-09-23T05:59:12.225Z,88.45
2022-09-23T06:02:15.063Z,86.79
2022-09-23T06:05:17.482Z,82.41
2022-09-23T06:08:19.643Z,80.39
2022-09-23T06:11:22.049Z,76.57
2022-09-23T06:14:24.425Z,74.69
2022-09-23T06:17:26.793Z,71.47
2022-09-23T06:20:29.352Z,71.11
2022-09-23T06:23:32.652Z,70.58
2022-09-23T06:26:37.638Z,68.38
2022-09-23T06:29:40.047Z,67.80
2022-09-23T06:32:42.312Z,65.83
2022-09-23T06:35:53.385Z,66.60
2022-09-23T06:38:59.062Z,65.10
2022-09-23T06:42:01.658Z,64.44
2022-09-23T06:45:04.051Z,64.17
2022-09-23T06:48:08.378Z,64.24
2022-09-23T06:51:18.982Z,63.50
2022-09-23T06:54:21.379Z,62.80
2022-09-23T06:57:24.412Z,61.73
2022-09-23T07:00:26.963Z,63.04
2022-09-23T07:03:29.464Z,63.55
2022-09-23T07:06:31.862Z,61.66
2022-09-23T07:09:34.108Z,61.19
2022-09-23T07:12:37.082Z,62.37
2022-09-23T07:15:39.229Z,63.46
2022-09-23T07:18:42.758Z,65.49
2022-09-23T07:21:44.887Z,64.04
2022-09-23T07:24:47.394Z,64.94
2022-09-23T07:27:49.452Z,62.71
2022-09-23T07:31:00.057Z,63.01
2022-09-23T07:34:02.879Z,61.95
2022-09-23T07:37:05.348Z,61.89
2022-09-23T07:40:07.960Z,61.80
2022-09-23T07:43:10.334Z,61.25
2022-09-23T07:46:16.334Z,60.91
2022-09-23T07:49:18.713Z,61.28
2022-09-23T07:52:20.689Z,61.83
2022-09-23T07:55:23.007Z,63.26
2022-09-23T07:58:26.298Z,64.06
2022-09-23T08:01:39.932Z,61.67
2022-09-23T08:04:42.621Z,60.61
2022-09-23T08:07:44.690Z,59.77
2022-09-23T08:10:47.055Z,61.18
2022-09-23T08:13:49.111Z,60.60
2022-09-23T08:16:52.221Z,62.19
2022-09-23T08:19:54.266Z,62.11
2022-09-23T08:22:56.595Z,58.64
2022-09-23T08:26:00.926Z,58.96
2022-09-23T08:29:04.110Z,57.19
2022-09-23T08:32:06.750Z,58.63
2022-09-23T08:35:09.359Z,57.96
2022-09-23T08:38:11.426Z,58.46
2022-09-23T08:41:20.143Z,58.19
2022-09-23T08:44:31.306Z,57.81
2022-09-23T08:47:50.464Z,57.48
2022-09-23T08:50:58.738Z,57.63
2022-09-23T08:54:01.228Z,66.87
2022-09-23T08:57:05.368Z,61.39
2022-09-23T09:00:15.768Z,57.84
2022-09-23T09:03:24.705Z,62.15
2022-09-23T09:06:51.775Z,58.24
2022-09-23T09:10:03.379Z,59.27
2022-09-23T09:13:11.029Z,55.94
2022-09-23T09:16:58.411Z,57.66
2022-09-23T09:20:18.741Z,56.35
2022-09-23T09:23:37.423Z,55.66
2022-09-23T09:26:40.271Z,57.00
2022-09-23T09:29:49.767Z,59.08
2022-09-23T09:33:02.218Z,55.81
2022-09-23T09:36:14.590Z,53.80
2022-09-23T09:39:17.386Z,54.01
2022-09-23T09:42:40.328Z,53.98
2022-09-23T09:46:22.718Z,52.00
2022-09-23T09:49:40.312Z,53.21
2022-09-23T09:52:43.080Z,52.47
2022-09-23T09:55:48.322Z,51.78
2022-09-23T09:58:54.862Z,52.68
2022-09-23T10:02:13.835Z,50.83
2022-09-23T10:05:30.042Z,52.34
2022-09-23T10:08:35.184Z,51.34
2022-09-23T10:11:38.703Z,49.82
2022-09-23T10:14:43.597Z,48.76
2022-09-23T10:17:50.223Z,48.85
2022-09-23T10:20:52.465Z,48.71
2022-09-23T10:24:01.555Z,47.33
2022-09-23T10:27:11.909Z,45.63
2022-09-23T10:30:23.721Z,45.95
2022-09-23T10:33:27.848Z,44.39
2022-09-23T10:36:33.226Z,46.32
2022-09-23T10:39:54.215Z,46.36
2022-09-23T10:43:29.871Z,47.71
2022-09-23T10:46:47.039Z,47.28
2022-09-23T10:50:14.886Z,48.36
2022-09-23T10:53:35.389Z,47.34
2022-09-23T10:56:46.407Z,49.06
2022-09-23T11:00:10.947Z,48.43
2022-09-23T11:03:19.129Z,49.23
2022-09-23T11:06:27.112Z,50.54
2022-09-23T11:10:01.113Z,50.16
2022-09-23T11:13:19.556Z,48.75
2022-09-23T11:16:36.132Z,43.18
2022-09-23T11:20:21.398Z,43.44
2022-09-23T11:23:37.656Z,46.52
2022-09-23T11:26:59.765Z,42.09
2022-09-23T11:30:14.051Z,33.77
2022-09-23T11:33:31.409Z,33.73
2022-09-23T11:36:42.411Z,36.55
2022-09-23T11:40:02.158Z,35.84
2022-09-23T11:43:23.371Z,38.65
2022-09-23T11:46:42.814Z,41.92
2022-09-23T11:49:59.163Z,43.38
2022-09-23T11:53:08.869Z,45.22
2022-09-23T11:56:30.307Z,48.94
2022-09-23T11:59:51.183Z,48.24
2022-09-23T12:03:12.312Z,49.14
2022-09-23T12:06:21.251Z,48.88
2022-09-23T12:09:57.294Z,49.47
2022-09-23T12:13:10.419Z,49.83
2022-09-23T12:16:21.749Z,51.52
2022-09-23T12:19:30.870Z,53.51
2022-09-23T12:22:56.774Z,52.70
2022-09-23T12:26:02.765Z,49.95
2022-09-23T12:29:06.131Z,48.17
2022-09-23T12:32:17.536Z,49.36
2022-09-23T12:35:32.098Z,51.11
2022-09-23T12:38:57.636Z,53.19
2022-09-23T12:42:08.195Z,53.11
2022-09-23T12:45:35.006Z,54.57
2022-09-23T12:48:46.126Z,47.96
2022-09-23T12:52:28.013Z,46.67
2022-09-23T12:55:33.164Z,47.50
2022-09-23T12:58:56.745Z,47.36
2022-09-23T13:02:36.439Z,47.69
2022-09-23T13:06:02.238Z,47.76
2022-09-23T13:09:13.304Z,47.84
2022-09-23T13:12:21.388Z,50.63
2022-09-23T13:15:30.865Z,47.86
2022-09-23T13:19:03.087Z,47.48
2022-09-23T13:22:10.995Z,45.76
2022-09-23T13:25:21.504Z,43.51
2022-09-23T13:28:28.259Z,41.69
2022-09-23T13:31:30.861Z,42.73
2022-09-23T13:34:34.885Z,43.32
2022-09-23T13:37:37.115Z,46.01
2022-09-23T13:40:41.803Z,44.54
2022-09-23T13:43:48.947Z,45.81
2022-09-23T13:46:55.172Z,44.48
2022-09-23T13:49:57.906Z,43.93
2022-09-23T13:53:02.723Z,44.60
2022-09-23T13:56:06.582Z,44.95
2022-09-23T13:59:29.188Z,44.19
2022-09-23T14:02:31.589Z,43.71
2022-09-23T14:05:35.652Z,44.48
2022-09-23T14:08:45.370Z,46.25
2022-09-23T14:11:50.518Z,47.39
2022-09-23T14:14:52.880Z,48.60
2022-09-23T14:18:02.848Z,49.88
2022-09-23T14:21:05.662Z,52.25
2022-09-23T14:24:11.003Z,55.97
2022-09-23T14:27:15.974Z,55.25
2022-09-23T14:30:18.918Z,57.46
2022-09-23T14:33:47.016Z,56.43
2022-09-23T14:37:21.530Z,56.45
2022-09-23T14:40:35.917Z,56.79
2022-09-23T14:43:38.375Z,56.13
2022-09-23T14:46:40.928Z,56.67
2022-09-23T14:50:10.918Z,50.30
2022-09-23T14:53:22.467Z,51.06
2022-09-23T14:56:25.394Z,46.65
2022-09-23T14:59:37.266Z,48.62
2022-09-23T15:02:43.247Z,44.36
2022-09-23T15:05:47.830Z,44.90
2022-09-23T15:08:52.145Z,43.45
2022-09-23T15:12:00.435Z,43.10
2022-09-23T15:15:02.902Z,42.81
